createdAt,value
2018-06-15T00:03:58.902Z,100984.00
2018-06-15T00:09:02.893Z,100987.00
2018-06-15T00:14:06.665Z,100982.00
2018-06-15T00:19:10.449Z,100988.00
2018-06-15T00:24:14.217Z,100982.00
2018-06-15T00:29:18.036Z,100986.00
2018-06-15T00:34:22.051Z,100984.00
2018-06-15T00:39:26.053Z,100978.00
2018-06-15T00:44:29.905Z,100983.00
2018-06-15T00:49:33.909Z,100979.00
2018-06-15T00:54:37.680Z,100973.00
2018-06-15T00:59:41.897Z,100977.00
2018-06-15T01:04:45.710Z,100970.00
2018-06-15T01:09:49.709Z,100975.00
2018-06-15T01:14:53.481Z,100976.00
2018-06-15T01:19:57.941Z,100974.00
2018-06-15T01:25:01.746Z,100973.00
2018-06-15T01:30:06.301Z,100971.00
2018-06-15T01:35:10.073Z,100966.00
2018-06-15T01:40:13.852Z,100961.00
2018-06-15T01:45:17.844Z,100960.00
2018-06-15T01:50:21.902Z,100952.00
2018-06-15T01:55:25.925Z,100954.00
2018-06-15T02:00:29.717Z,100952.00
2018-06-15T02:05:33.747Z,100947.00
2018-06-15T02:10:37.797Z,100949.00
2018-06-15T02:15:41.661Z,100946.00
2018-06-15T02:20:45.948Z,100944.00
2018-06-15T02:25:50.010Z,100944.00
2018-06-15T02:30:53.842Z,100939.00
2018-06-15T02:35:57.723Z,100941.00
2018-06-15T02:41:01.522Z,100939.00
2018-06-15T02:46:05.368Z,100946.00
2018-06-15T02:51:09.166Z,100945.00
2018-06-15T02:56:12.970Z,100947.00
2018-06-15T03:01:16.999Z,100946.00
2018-06-15T03:06:20.818Z,100958.00
2018-06-15T03:11:24.597Z,100951.00
2018-06-15T03:16:28.404Z,100957.00
2018-06-15T03:21:32.186Z,100960.00
2018-06-15T03:26:36.249Z,100961.00
2018-06-15T03:31:40.038Z,100958.00
2018-06-15T03:36:44.068Z,100963.00
2018-06-15T03:41:48.134Z,100961.00
2018-06-15T03:46:51.943Z,100960.00
2018-06-15T03:51:55.745Z,100965.00
2018-06-15T03:56:59.545Z,100970.00
2018-06-15T04:02:03.865Z,100975.00
2018-06-15T04:07:07.662Z,100989.00
2018-06-15T04:17:21.649Z,100996.00
2018-06-15T04:22:25.465Z,101000.00
2018-06-15T04:27:29.270Z,100994.00
2018-06-15T04:32:33.070Z,100994.00
2018-06-15T04:37:36.871Z,100994.00
2018-06-15T04:42:46.985Z,100987.00
2018-06-15T04:47:51.010Z,100987.00
2018-06-15T04:52:54.865Z,100993.00
2018-06-15T04:57:58.662Z,100993.00
2018-06-15T05:03:02.714Z,100990.00
2018-06-15T05:08:06.761Z,100993.00
2018-06-15T05:13:10.888Z,100995.00
2018-06-15T05:18:14.680Z,100998.00
2018-06-15T05:23:18.474Z,101002.00
2018-06-15T05:28:22.277Z,100996.00
2018-06-15T05:33:26.674Z,101005.00
2018-06-15T05:38:30.739Z,101004.00
2018-06-15T05:43:34.542Z,101007.00
2018-06-15T05:48:38.718Z,101012.00
2018-06-15T05:53:42.526Z,101019.00
2018-06-15T05:58:46.327Z,101015.00
2018-06-15T06:03:50.211Z,101020.00
2018-06-15T06:08:53.955Z,101027.00
2018-06-15T06:13:57.793Z,101031.00
2018-06-15T06:19:02.227Z,101034.00
2018-06-15T06:24:06.042Z,101036.00
2018-06-15T06:29:09.836Z,101044.00
2018-06-15T06:34:13.938Z,101041.00
2018-06-15T06:39:18.001Z,101036.00
2018-06-15T06:44:21.832Z,101044.00
2018-06-15T06:49:25.633Z,101039.00
2018-06-15T06:54:29.498Z,101042.00
2018-06-15T06:59:33.281Z,101052.00
2018-06-15T07:04:37.352Z,101058.00
2018-06-15T07:09:41.362Z,101058.00
2018-06-15T07:14:45.194Z,101048.00
2018-06-15T07:19:49.234Z,101050.00
2018-06-15T07:24:53.262Z,101051.00
2018-06-15T07:29:57.297Z,101055.00
2018-06-15T07:35:01.114Z,101053.00
2018-06-15T07:40:04.913Z,101062.00
2018-06-15T07:45:08.947Z,101067.00
2018-06-15T07:50:12.769Z,101059.00
2018-06-15T07:55:16.579Z,101061.00
2018-06-15T08:00:20.379Z,101065.00
2018-06-15T08:05:25.038Z,101073.00
2018-06-15T08:10:29.074Z,101069.00
2018-06-15T08:15:32.861Z,101073.00
2018-06-15T08:20:36.646Z,101069.00
2018-06-15T08:25:40.433Z,101078.00
2018-06-15T08:30:44.230Z,101069.00
2018-06-15T08:35:48.260Z,101060.00
2018-06-15T08:40:52.295Z,101056.00
2018-06-15T08:45:56.330Z,101066.00
2018-06-15T08:51:00.134Z,101052.00
2018-06-15T08:56:03.983Z,101073.00
2018-06-15T09:01:07.798Z,101077.00
2018-06-15T09:06:11.686Z,101069.00
2018-06-15T09:11:15.574Z,101071.00
2018-06-15T09:16:19.417Z,101064.00
2018-06-15T09:21:23.479Z,101057.00
2018-06-15T09:26:27.538Z,101053.00
2018-06-15T09:31:31.386Z,101065.00
2018-06-15T09:36:35.430Z,101038.00
2018-06-15T09:41:39.529Z,101059.00
2018-06-15T09:46:43.480Z,101058.00
2018-06-15T09:51:47.551Z,101050.00
2018-06-15T09:56:51.382Z,101062.00
2018-06-15T10:01:55.204Z,101066.00
2018-06-15T10:06:59.273Z,101060.00
2018-06-15T10:12:03.210Z,101055.00
2018-06-15T10:17:07.181Z,101045.00
2018-06-15T10:22:11.234Z,101034.00
2018-06-15T10:27:15.346Z,101039.00
2018-06-15T10:32:19.321Z,101039.00
2018-06-15T10:37:23.134Z,101030.00
2018-06-15T10:42:26.925Z,101034.00
2018-06-15T10:47:30.762Z,101036.00
2018-06-15T10:52:34.825Z,101047.00
2018-06-15T10:57:38.617Z,101038.00
2018-06-15T11:02:42.449Z,101032.00
2018-06-15T11:07:46.346Z,101024.00
2018-06-15T11:12:50.399Z,101035.00
2018-06-15T11:17:54.209Z,101029.00
2018-06-15T11:22:58.003Z,101017.00
2018-06-15T11:28:01.835Z,101018.00
2018-06-15T11:33:05.863Z,101014.00
2018-06-15T11:38:09.685Z,101013.00
2018-06-15T11:43:13.508Z,101009.00
2018-06-15T11:48:17.293Z,101007.00
2018-06-15T11:53:21.128Z,100999.00
2018-06-15T11:58:25.230Z,100998.00
2018-06-15T12:03:29.055Z,100990.00
2018-06-15T12:08:33.118Z,100988.00
2018-06-15T12:13:37.892Z,100987.00
2018-06-15T12:18:41.696Z,100988.00
2018-06-15T12:23:45.674Z,100982.00
2018-06-15T12:28:49.640Z,100986.00
2018-06-15T12:33:53.723Z,100978.00
2018-06-15T12:38:57.578Z,100975.00
2018-06-15T12:44:01.393Z,100975.00
2018-06-15T12:49:05.510Z,100969.00
2018-06-15T12:54:09.390Z,100961.00
2018-06-15T12:59:13.270Z,100966.00
2018-06-15T13:04:17.468Z,100970.00
2018-06-15T13:09:21.382Z,100967.00
2018-06-15T13:14:25.292Z,100964.00
2018-06-15T13:19:29.427Z,100968.00
2018-06-15T13:24:34.974Z,100962.00
2018-06-15T13:29:39.125Z,100965.00
2018-06-15T13:34:43.015Z,100959.00
2018-06-15T13:39:46.876Z,100959.00
2018-06-15T13:44:50.765Z,100953.00
2018-06-15T13:49:54.700Z,100954.00
2018-06-15T13:54:59.326Z,100950.00
2018-06-15T14:00:03.109Z,100944.00
2018-06-15T14:05:07.530Z,100944.00
2018-06-15T14:10:11.803Z,100939.00
2018-06-15T14:15:15.910Z,100939.00
2018-06-15T14:20:19.749Z,100943.00
2018-06-15T14:25:23.784Z,100939.00
2018-06-15T14:30:27.570Z,100939.00
2018-06-15T14:35:31.356Z,100937.00
2018-06-15T14:40:35.395Z,100935.00
2018-06-15T14:45:39.389Z,100927.00
2018-06-15T14:50:43.265Z,100919.00
2018-06-15T14:55:47.617Z,100917.00
2018-06-15T15:00:51.401Z,100922.00
2018-06-15T15:05:55.281Z,100919.00
2018-06-15T15:10:59.072Z,100914.00
2018-06-15T15:16:02.900Z,100912.00
2018-06-15T15:21:06.983Z,100912.00
2018-06-15T15:26:11.105Z,100911.00
2018-06-15T15:31:15.038Z,100910.00
2018-06-15T15:36:19.196Z,100912.00
2018-06-15T15:41:22.929Z,100912.00
2018-06-15T15:46:26.997Z,100900.00
2018-06-15T15:51:30.853Z,100898.00
2018-06-15T15:56:34.729Z,100893.00
2018-06-15T16:01:38.513Z,100888.00
2018-06-15T16:06:42.313Z,100880.00
2018-06-15T16:11:46.089Z,100877.00
2018-06-15T16:16:50.161Z,100876.00
2018-06-15T16:21:59.578Z,100867.00
2018-06-15T16:27:03.594Z,100871.00
2018-06-15T16:32:07.516Z,100875.00
2018-06-15T16:37:11.552Z,100870.00
2018-06-15T16:42:15.446Z,100871.00
2018-06-15T16:47:19.253Z,100871.00
2018-06-15T16:52:23.022Z,100873.00
2018-06-15T16:57:26.834Z,100875.00
2018-06-15T17:02:30.645Z,100878.00
2018-06-15T17:07:34.510Z,100867.00
2018-06-15T17:12:38.534Z,100869.00
2018-06-15T17:17:42.681Z,100873.00
2018-06-15T17:22:46.698Z,100882.00
2018-06-15T17:27:50.477Z,100878.00
2018-06-15T17:32:54.503Z,100872.00
2018-06-15T17:37:58.432Z,100871.00
2018-06-15T17:43:02.352Z,100877.00
2018-06-15T17:48:06.151Z,100887.00
2018-06-15T17:53:09.934Z,100889.00
2018-06-15T17:58:13.737Z,100890.00
2018-06-15T18:03:17.585Z,100892.00
2018-06-15T18:08:21.362Z,100888.00
2018-06-15T18:13:25.226Z,100892.00
2018-06-15T18:18:29.355Z,100890.00
2018-06-15T18:23:33.183Z,100897.00
2018-06-15T18:28:37.010Z,100898.00
2018-06-15T18:33:41.026Z,100894.00
2018-06-15T18:38:44.826Z,100897.00
2018-06-15T18:43:48.704Z,100894.00
2018-06-15T18:48:52.536Z,100893.00
2018-06-15T18:53:56.306Z,100898.00
2018-06-15T18:59:00.130Z,100894.00
2018-06-15T19:04:03.905Z,100890.00
2018-06-15T19:09:10.444Z,100887.00
2018-06-15T19:14:14.265Z,100882.00
2018-06-15T19:19:18.048Z,100885.00
2018-06-15T19:24:22.150Z,100888.00
2018-06-15T19:29:25.924Z,100884.00
2018-06-15T19:34:29.713Z,100886.00
2018-06-15T19:39:33.497Z,100889.00
2018-06-15T19:44:37.345Z,100886.00
2018-06-15T19:49:41.138Z,100889.00
2018-06-15T19:54:44.958Z,100895.00
2018-06-15T19:59:48.982Z,100898.00
2018-06-15T20:04:52.762Z,100903.00
2018-06-15T20:09:56.557Z,100904.00
2018-06-15T20:15:00.600Z,100906.00
2018-06-15T20:20:04.677Z,100908.00
2018-06-15T20:25:08.460Z,100907.00
2018-06-15T20:30:12.486Z,100908.00
2018-06-15T20:35:16.281Z,100909.00
2018-06-15T20:40:20.310Z,100912.00
2018-06-15T20:45:24.430Z,100920.00
2018-06-15T20:50:28.205Z,100912.00
2018-06-15T20:55:32.082Z,100912.00
2018-06-15T21:00:35.867Z,100905.00
2018-06-15T21:05:40.025Z,100900.00
2018-06-15T21:10:43.802Z,100897.00
2018-06-15T21:15:47.829Z,100899.00
2018-06-15T21:20:51.671Z,100900.00
2018-06-15T21:25:55.453Z,100898.00
2018-06-15T21:30:59.244Z,100898.00
2018-06-15T21:36:03.261Z,100898.00
2018-06-15T21:41:07.326Z,100891.00
2018-06-15T21:46:11.131Z,100893.00
2018-06-15T21:51:14.933Z,100894.00
2018-06-15T21:56:19.010Z,100884.00
2018-06-15T22:01:26.602Z,100889.00
2018-06-15T22:06:30.445Z,100895.00
2018-06-15T22:11:34.271Z,100897.00
2018-06-15T22:16:43.579Z,100896.00
2018-06-15T22:21:47.517Z,100903.00
2018-06-15T22:26:51.426Z,100896.00
2018-06-15T22:31:55.215Z,100897.00
2018-06-15T22:36:59.234Z,100903.00
2018-06-15T22:42:03.509Z,100908.00
2018-06-15T22:47:07.633Z,100917.00
2018-06-15T22:52:11.713Z,100907.00
2018-06-15T22:57:15.562Z,100908.00
2018-06-15T23:02:19.604Z,100906.00
2018-06-15T23:07:23.430Z,100902.00
2018-06-15T23:12:27.327Z,100905.00
2018-06-15T23:17:31.101Z,100908.00
2018-06-15T23:22:35.110Z,100910.00
2018-06-15T23:27:39.134Z,100915.00
2018-06-15T23:32:43.150Z,100902.00
2018-06-15T23:37:47.029Z,100907.00
2018-06-15T23:42:50.849Z,100902.00
2018-06-15T23:47:54.661Z,100905.00
2018-06-15T23:52:58.450Z,100908.00
2018-06-15T23:58:02.223Z,100907.00
